createdAt,value
2022-09-13T00:02:21.644Z,99567.88
2022-09-13T00:04:48.297Z,99566.53
2022-09-13T00:07:14.809Z,99565.53
2022-09-13T00:09:41.381Z,99565.91
2022-09-13T00:12:07.870Z,99568.28
2022-09-13T00:14:34.366Z,99563.25
2022-09-13T00:17:00.791Z,99554.31
2022-09-13T00:19:27.202Z,99555.00
2022-09-13T00:21:53.608Z,99551.28
2022-09-13T00:24:20.091Z,99550.78
2022-09-13T00:26:46.652Z,99552.81
2022-09-13T00:29:13.052Z,99542.88
2022-09-13T00:31:40.094Z,99549.00
2022-09-13T00:34:06.576Z,99542.94
2022-09-13T00:36:33.280Z,99531.47
2022-09-13T00:39:01.141Z,99531.84
2022-09-13T00:41:27.515Z,99532.34
2022-09-13T00:43:59.895Z,99531.69
2022-09-13T00:46:41.538Z,99510.09
2022-09-13T00:49:13.191Z,99512.97
2022-09-13T00:51:41.197Z,99519.59
2022-09-13T00:54:07.806Z,99507.47
2022-09-13T00:56:38.147Z,99507.47
2022-09-13T00:59:08.158Z,99498.06
2022-09-13T01:01:42.795Z,99503.28
2022-09-13T01:04:12.945Z,99498.72
2022-09-13T01:06:41.832Z,99497.03
2022-09-13T01:09:11.053Z,99499.56
2022-09-13T01:11:50.348Z,99491.63
2022-09-13T01:14:19.113Z,99493.00
2022-09-13T01:16:48.029Z,99485.25
2022-09-13T01:19:15.158Z,99487.13
2022-09-13T01:22:03.517Z,99479.19
2022-09-13T01:24:45.758Z,99481.91
2022-09-13T01:27:27.779Z,99472.31
2022-09-13T01:30:18.004Z,99468.94
2022-09-13T01:33:06.921Z,99467.28
2022-09-13T01:35:39.868Z,99466.44
2022-09-13T01:38:24.739Z,99460.00
2022-09-13T01:41:08.217Z,99457.53
2022-09-13T01:43:56.947Z,99454.81
2022-09-13T01:46:32.284Z,99458.03
2022-09-13T01:49:36.408Z,99454.69
2022-09-13T01:52:08.816Z,99447.94
2022-09-13T01:55:03.590Z,99445.25
2022-09-13T01:57:38.751Z,99437.88
2022-09-13T02:00:13.003Z,99446.28
2022-09-13T02:02:50.877Z,99440.72
2022-09-13T02:05:36.288Z,99439.59
2022-09-13T02:08:13.645Z,99435.16
2022-09-13T02:10:44.848Z,99437.09
2022-09-13T02:13:14.721Z,99430.19
2022-09-13T02:15:50.983Z,99438.09
2022-09-13T02:18:28.833Z,99429.69
2022-09-13T02:20:59.135Z,99432.56
2022-09-13T02:23:41.434Z,99426.81
2022-09-13T02:26:09.417Z,99432.56
2022-09-13T02:28:40.247Z,99432.03
2022-09-13T02:31:09.224Z,99435.72
2022-09-13T02:33:59.376Z,99433.72
2022-09-13T02:36:35.233Z,99433.22
2022-09-13T02:39:08.410Z,99428.00
2022-09-13T02:41:44.035Z,99430.50
2022-09-13T02:44:45.994Z,99421.97
2022-09-13T02:47:35.227Z,99428.66
2022-09-13T02:50:32.892Z,99420.28
2022-09-13T02:53:12.372Z,99430.91
2022-09-13T02:55:41.762Z,99428.22
2022-09-13T02:58:26.900Z,99436.28
2022-09-13T03:00:53.961Z,99425.34
2022-09-13T03:03:20.915Z,99425.03
2022-09-13T03:05:47.417Z,99416.59
2022-09-13T03:08:14.885Z,99412.06
2022-09-13T03:10:48.102Z,99410.69
2022-09-13T03:13:20.337Z,99402.44
2022-09-13T03:15:59.326Z,99398.56
2022-09-13T03:18:37.431Z,99394.66
2022-09-13T03:21:43.025Z,99378.00
2022-09-13T03:24:18.389Z,99380.00
2022-09-13T03:26:55.143Z,99370.38
2022-09-13T03:29:42.391Z,99371.47
2022-09-13T03:32:17.216Z,99360.25
2022-09-13T03:34:52.241Z,99356.66
2022-09-13T03:37:24.843Z,99357.03
2022-09-13T03:40:00.884Z,99361.94
2022-09-13T03:42:48.533Z,99358.22
2022-09-13T03:45:17.208Z,99358.59
2022-09-13T03:47:46.489Z,99362.31
2022-09-13T03:50:17.525Z,99368.06
2022-09-13T03:52:46.594Z,99370.03
2022-09-13T03:55:13.124Z,99365.00
2022-09-13T03:57:39.508Z,99361.84
2022-09-13T04:00:06.704Z,99359.97
2022-09-13T04:02:33.699Z,99372.78
2022-09-13T04:05:00.205Z,99367.75
2022-09-13T04:07:26.672Z,99373.50
2022-09-13T04:09:53.128Z,99376.34
2022-09-13T04:12:19.621Z,99371.16
2022-09-13T04:14:46.117Z,99366.28
2022-09-13T04:17:13.135Z,99365.16
2022-09-13T04:19:39.736Z,99366.84
2022-09-13T04:22:06.864Z,99356.41
2022-09-13T04:24:33.391Z,99364.66
2022-09-13T04:27:01.285Z,99374.91
2022-09-13T04:29:27.722Z,99362.97
2022-09-13T04:31:55.683Z,99353.88
2022-09-13T04:34:24.894Z,99367.53
2022-09-13T04:36:52.616Z,99356.41
2022-09-13T04:39:20.251Z,99357.25
2022-09-13T04:41:48.256Z,99357.84
2022-09-13T04:44:16.330Z,99362.13
2022-09-13T04:46:43.624Z,99358.69
2022-09-13T04:49:10.895Z,99353.78
2022-09-13T04:51:37.901Z,99369.25
2022-09-13T04:54:05.426Z,99361.00
2022-09-13T04:56:32.362Z,99357.28
2022-09-13T04:58:58.872Z,99351.97
2022-09-13T05:01:27.841Z,99359.38
2022-09-13T05:03:54.847Z,99358.84
2022-09-13T05:06:22.666Z,99355.44
2022-09-13T05:08:55.167Z,99357.78
2022-09-13T05:11:26.680Z,99350.56
2022-09-13T05:13:57.603Z,99355.13
2022-09-13T05:16:26.407Z,99350.19
2022-09-13T05:18:53.606Z,99349.38
2022-09-13T05:21:20.495Z,99334.69
2022-09-13T05:23:50.804Z,99351.63
2022-09-13T05:26:18.068Z,99347.66
2022-09-13T05:28:44.711Z,99351.56
2022-09-13T05:31:20.725Z,99363.13
2022-09-13T05:33:49.075Z,99353.47
2022-09-13T05:36:15.482Z,99356.69
2022-09-13T05:38:41.983Z,99360.94
2022-09-13T05:41:08.777Z,99359.00
2022-09-13T05:43:36.341Z,99361.69
2022-09-13T05:46:07.801Z,99361.03
2022-09-13T05:48:35.541Z,99357.00
2022-09-13T05:51:06.109Z,99352.56
2022-09-13T05:53:33.469Z,99339.78
2022-09-13T05:55:59.901Z,99343.22
2022-09-13T05:58:26.419Z,99341.00
2022-09-13T06:00:56.653Z,99346.34
2022-09-13T06:03:24.139Z,99339.81
2022-09-13T06:05:54.889Z,99341.69
2022-09-13T06:08:21.305Z,99345.28
2022-09-13T06:10:57.975Z,99348.59
2022-09-13T06:13:25.174Z,99353.13
2022-09-13T06:15:52.550Z,99360.38
2022-09-13T06:18:19.391Z,99363.56
2022-09-13T06:20:46.398Z,99370.59
2022-09-13T06:23:13.382Z,99363.97
2022-09-13T06:25:39.822Z,99356.47
2022-09-13T06:28:06.829Z,99359.63
2022-09-13T06:30:33.651Z,99357.91
2022-09-13T06:33:00.109Z,99373.09
2022-09-13T06:35:26.552Z,99372.53
2022-09-13T06:37:57.821Z,99377.56
2022-09-13T06:40:25.476Z,99378.41
2022-09-13T06:42:51.942Z,99378.44
2022-09-13T06:45:18.808Z,99376.16
2022-09-13T06:47:45.201Z,99371.13
2022-09-13T06:50:11.767Z,99364.81
2022-09-13T06:52:38.263Z,99366.94
2022-09-13T06:55:06.719Z,99359.72
2022-09-13T06:57:34.935Z,99359.66
2022-09-13T07:00:01.775Z,99361.78
2022-09-13T07:02:28.961Z,99365.34
2022-09-13T07:04:55.367Z,99363.31
2022-09-13T07:07:21.944Z,99365.81
2022-09-13T07:09:48.300Z,99361.44
2022-09-13T07:12:19.993Z,99355.38
2022-09-13T07:14:47.018Z,99352.34
2022-09-13T07:17:13.448Z,99353.28
2022-09-13T07:19:40.578Z,99349.88
2022-09-13T07:22:07.082Z,99345.34
2022-09-13T07:24:33.454Z,99348.88
2022-09-13T07:26:59.833Z,99358.53
2022-09-13T07:29:26.320Z,99344.25
2022-09-13T07:31:54.658Z,99358.13
2022-09-13T07:34:23.071Z,99361.16
2022-09-13T07:36:50.151Z,99357.53
2022-09-13T07:39:22.054Z,99360.00
2022-09-13T07:41:49.048Z,99354.06
2022-09-13T07:44:15.481Z,99358.38
2022-09-13T07:46:43.716Z,99361.69
2022-09-13T07:49:15.003Z,99357.03
2022-09-13T07:51:43.169Z,99352.16
2022-09-13T07:54:15.140Z,99365.69
2022-09-13T07:56:42.223Z,99357.09
2022-09-13T07:59:13.585Z,99348.44
2022-09-13T08:01:45.589Z,99351.28
2022-09-13T08:04:14.667Z,99344.22
2022-09-13T08:06:43.360Z,99346.50
2022-09-13T08:09:10.671Z,99341.88
2022-09-13T08:11:42.162Z,99336.91
2022-09-13T08:14:11.453Z,99332.53
2022-09-13T08:16:39.388Z,99341.91
2022-09-13T08:19:06.515Z,99329.13
2022-09-13T08:21:38.638Z,99325.34
2022-09-13T08:24:07.222Z,99323.84
2022-09-13T08:26:35.796Z,99327.31
2022-09-13T08:29:04.518Z,99334.69
2022-09-13T08:31:31.245Z,99325.69
2022-09-13T08:33:58.372Z,99350.34
2022-09-13T08:36:25.964Z,99343.59
2022-09-13T08:38:54.744Z,99331.31
2022-09-13T08:41:47.838Z,99336.81
2022-09-13T08:44:28.541Z,99340.50
2022-09-13T08:47:12.281Z,99333.97
2022-09-13T08:49:45.018Z,99328.13
2022-09-13T08:52:20.823Z,99323.50
2022-09-13T08:54:48.168Z,99321.78
2022-09-13T08:57:26.898Z,99323.59
2022-09-13T09:00:02.425Z,99319.63
2022-09-13T09:03:01.482Z,99330.00
2022-09-13T09:05:30.070Z,99336.34
2022-09-13T09:08:08.862Z,99336.31
2022-09-13T09:10:44.097Z,99324.16
2022-09-13T09:13:23.843Z,99317.72
2022-09-13T09:16:21.687Z,99309.53
2022-09-13T09:18:48.733Z,99300.44
2022-09-13T09:21:17.453Z,99308.78
2022-09-13T09:23:55.047Z,99318.66
2022-09-13T09:26:29.061Z,99321.19
2022-09-13T09:28:58.135Z,99316.34
2022-09-13T09:31:41.824Z,99320.59
2022-09-13T09:34:31.212Z,99326.47
2022-09-13T09:37:07.578Z,99334.63
2022-09-13T09:39:38.999Z,99329.53
2022-09-13T09:42:17.387Z,99333.31
2022-09-13T09:44:50.232Z,99331.69
2022-09-13T09:47:27.188Z,99328.75
2022-09-13T09:50:10.945Z,99328.47
2022-09-13T09:52:58.071Z,99325.03
2022-09-13T09:55:28.407Z,99322.06
2022-09-13T09:57:57.694Z,99322.22
2022-09-13T10:00:27.263Z,99318.72
2022-09-13T10:02:57.553Z,99316.00
2022-09-13T10:05:26.243Z,99306.22
2022-09-13T10:08:07.205Z,99308.81
2022-09-13T10:10:42.877Z,99296.78
2022-09-13T10:13:16.155Z,99284.38
2022-09-13T10:16:00.331Z,99278.25
2022-09-13T10:18:45.577Z,99275.84
2022-09-13T10:21:18.211Z,99280.22
2022-09-13T10:23:50.389Z,99282.44
2022-09-13T10:26:25.425Z,99274.81
2022-09-13T10:29:07.662Z,99269.81
2022-09-13T10:31:39.397Z,99267.63
2022-09-13T10:34:13.073Z,99273.47
2022-09-13T10:36:52.468Z,99271.72
2022-09-13T10:39:21.702Z,99264.63
2022-09-13T10:42:09.383Z,99264.72
2022-09-13T10:44:43.463Z,99261.31
2022-09-13T10:47:19.832Z,99256.00
2022-09-13T10:49:54.989Z,99257.59
2022-09-13T10:52:48.568Z,99255.03
2022-09-13T10:55:21.153Z,99253.47
2022-09-13T10:58:10.989Z,99247.31
2022-09-13T11:01:08.397Z,99249.22
2022-09-13T11:03:34.995Z,99251.03
2022-09-13T11:06:12.198Z,99240.38
2022-09-13T11:09:00.420Z,99251.53
2022-09-13T11:11:41.585Z,99244.34
2022-09-13T11:14:11.083Z,99249.38
2022-09-13T11:16:47.352Z,99236.72
2022-09-13T11:19:46.954Z,99247.41
2022-09-13T11:22:24.638Z,99239.91
2022-09-13T11:24:57.612Z,99231.38
2022-09-13T11:27:30.417Z,99221.19
2022-09-13T11:30:19.064Z,99216.88
2022-09-13T11:32:56.561Z,99230.00
2022-09-13T11:35:36.971Z,99230.44
2022-09-13T11:38:15.500Z,99222.28
2022-09-13T11:41:11.724Z,99217.03
2022-09-13T11:43:47.329Z,99223.75
2022-09-13T11:46:23.041Z,99222.44
2022-09-13T11:49:23.962Z,99220.44
2022-09-13T11:52:03.496Z,99206.03
2022-09-13T11:54:38.587Z,99212.66
2022-09-13T11:57:09.587Z,99212.78
2022-09-13T11:59:40.326Z,99213.25
2022-09-13T12:02:18.587Z,99201.91
2022-09-13T12:04:59.494Z,99208.56
2022-09-13T12:07:36.144Z,99204.16
2022-09-13T12:10:17.477Z,99202.94
2022-09-13T12:12:45.159Z,99205.38
2022-09-13T12:15:34.985Z,99196.25
2022-09-13T12:18:17.387Z,99208.06
2022-09-13T12:20:50.290Z,99211.59
2022-09-13T12:23:30.661Z,99189.69
2022-09-13T12:26:15.931Z,99195.66
2022-09-13T12:28:46.768Z,99190.47
2022-09-13T12:31:19.587Z,99184.09
2022-09-13T12:33:46.693Z,99186.66
2022-09-13T12:36:22.076Z,99180.91
2022-09-13T12:39:16.745Z,99188.91
2022-09-13T12:42:01.838Z,99177.53
2022-09-13T12:44:42.503Z,99176.63
2022-09-13T12:47:54.469Z,99179.50
2022-09-13T12:50:45.962Z,99173.50
2022-09-13T12:53:21.365Z,99167.34
2022-09-13T12:56:02.543Z,99168.47
2022-09-13T12:58:37.935Z,99160.81
2022-09-13T13:01:15.878Z,99158.88
2022-09-13T13:04:04.722Z,99161.16
2022-09-13T13:06:38.614Z,99151.19
2022-09-13T13:09:42.401Z,99157.28
2022-09-13T13:12:26.643Z,99155.84
2022-09-13T13:14:53.586Z,99160.41
2022-09-13T13:17:39.902Z,99160.88
2022-09-13T13:20:44.098Z,99146.06
2022-09-13T13:23:28.578Z,99156.91
2022-09-13T13:26:07.694Z,99160.41
2022-09-13T13:28:43.258Z,99151.94
2022-09-13T13:31:10.154Z,99150.00
2022-09-13T13:33:48.502Z,99150.44
2022-09-13T13:36:27.779Z,99155.13
2022-09-13T13:38:57.696Z,99154.03
2022-09-13T13:41:47.313Z,99152.38
2022-09-13T13:44:17.973Z,99161.22
2022-09-13T13:46:44.709Z,99154.91
2022-09-13T13:49:33.047Z,99150.81
2022-09-13T13:52:11.863Z,99155.00
2022-09-13T13:54:41.504Z,99142.28
2022-09-13T13:57:38.798Z,99149.19
2022-09-13T14:00:08.443Z,99153.59
2022-09-13T14:02:41.569Z,99147.25
2022-09-13T14:05:22.690Z,99151.91
2022-09-13T14:08:12.476Z,99142.84
2022-09-13T14:11:02.563Z,99149.19
2022-09-13T14:13:54.580Z,99137.31
2022-09-13T14:16:36.938Z,99137.31
2022-09-13T14:19:12.453Z,99134.56
2022-09-13T14:21:38.906Z,99133.97
2022-09-13T14:24:19.063Z,99125.72
2022-09-13T14:26:52.570Z,99111.94
2022-09-13T14:29:21.336Z,99122.97
2022-09-13T14:31:50.321Z,99119.41
2022-09-13T14:34:31.829Z,99115.50
2022-09-13T14:37:00.847Z,99126.72
2022-09-13T14:39:28.151Z,99116.81
2022-09-13T14:42:14.578Z,99108.50
2022-09-13T14:44:47.747Z,99113.47
2022-09-13T14:47:27.032Z,99111.28
2022-09-13T14:50:07.290Z,99105.16
2022-09-13T14:52:37.119Z,99106.28
2022-09-13T14:55:11.537Z,99109.94
2022-09-13T14:57:40.150Z,99107.69
2022-09-13T15:00:16.359Z,99104.84
2022-09-13T15:02:51.192Z,99109.75
2022-09-13T15:05:20.294Z,99108.59
2022-09-13T15:07:46.809Z,99104.59
2022-09-13T15:10:13.166Z,99107.88
2022-09-13T15:12:51.716Z,99115.25
2022-09-13T15:15:33.008Z,99112.97
2022-09-13T15:18:17.632Z,99113.00
2022-09-13T15:20:46.191Z,99113.59
2022-09-13T15:23:17.311Z,99113.00
2022-09-13T15:25:53.173Z,99115.63
2022-09-13T15:28:25.906Z,99117.09
2022-09-13T15:30:53.581Z,99115.38
2022-09-13T15:33:26.547Z,99119.13
2022-09-13T15:35:56.439Z,99121.19
2022-09-13T15:38:30.892Z,99112.06
2022-09-13T15:41:25.054Z,99114.66
2022-09-13T15:43:51.518Z,99116.25
2022-09-13T15:46:18.172Z,99115.28
2022-09-13T15:48:51.212Z,99100.56
2022-09-13T15:51:18.328Z,99108.28
2022-09-13T15:53:46.119Z,99105.47
2022-09-13T15:56:16.476Z,99095.00
2022-09-13T15:58:43.052Z,99099.63
2022-09-13T16:01:12.562Z,99098.84
2022-09-13T16:03:39.128Z,99099.88
2022-09-13T16:06:07.183Z,99099.38
2022-09-13T16:08:33.662Z,99105.38
2022-09-13T16:11:00.393Z,99110.50
2022-09-13T16:13:26.809Z,99101.16
2022-09-13T16:15:57.575Z,99096.97
2022-09-13T16:18:24.593Z,99099.38
2022-09-13T16:20:51.480Z,99091.88
2022-09-13T16:23:18.050Z,99093.53
2022-09-13T16:25:44.469Z,99097.88
2022-09-13T16:28:18.529Z,99098.91
2022-09-13T16:30:45.154Z,99098.88
2022-09-13T16:33:11.569Z,99099.00
2022-09-13T16:35:37.992Z,99094.91
2022-09-13T16:38:04.458Z,99097.66
2022-09-13T16:40:30.981Z,99099.78
2022-09-13T16:42:57.972Z,99100.56
2022-09-13T16:45:24.409Z,99098.81
2022-09-13T16:47:50.955Z,99083.53
2022-09-13T16:50:17.795Z,99081.66
2022-09-13T16:52:44.257Z,99087.63
2022-09-13T16:55:10.770Z,99090.94
2022-09-13T16:57:37.389Z,99089.59
2022-09-13T17:00:08.713Z,99090.03
2022-09-13T17:02:35.320Z,99090.81
2022-09-13T17:05:01.815Z,99088.56
2022-09-13T17:07:28.237Z,99092.84
2022-09-13T17:09:54.774Z,99094.28
2022-09-13T17:12:21.207Z,99093.25
2022-09-13T17:14:47.841Z,99089.94
2022-09-13T17:17:18.260Z,99088.41
2022-09-13T17:19:44.941Z,99080.16
2022-09-13T17:22:11.915Z,99086.06
2022-09-13T17:24:38.831Z,99083.25
2022-09-13T17:27:06.760Z,99081.53
2022-09-13T17:29:34.776Z,99090.84
2022-09-13T17:32:02.848Z,99096.25
2022-09-13T17:34:30.670Z,99087.94
2022-09-13T17:36:57.211Z,99088.94
2022-09-13T17:39:23.940Z,99083.97
2022-09-13T17:41:51.381Z,99084.09
2022-09-13T17:44:17.870Z,99079.63
2022-09-13T17:46:44.498Z,99071.56
2022-09-13T17:49:11.029Z,99066.75
2022-09-13T17:51:37.471Z,99067.59
2022-09-13T17:54:06.446Z,99063.78
2022-09-13T17:56:38.259Z,99059.72
2022-09-13T17:59:13.534Z,99063.94
2022-09-13T18:01:43.282Z,99066.72
2022-09-13T18:04:10.789Z,99068.56
2022-09-13T18:06:38.567Z,99068.56
2022-09-13T18:09:05.216Z,99071.91
2022-09-13T18:11:31.778Z,99069.88
2022-09-13T18:13:58.532Z,99069.16
2022-09-13T18:16:26.773Z,99066.03
2022-09-13T18:18:53.728Z,99069.50
2022-09-13T18:21:21.475Z,99057.09
2022-09-13T18:23:49.192Z,99061.94
2022-09-13T18:26:18.086Z,99060.41
2022-09-13T18:28:44.792Z,99061.78
2022-09-13T18:31:16.961Z,99063.78
2022-09-13T18:33:44.697Z,99068.72
2022-09-13T18:36:13.120Z,99067.31
2022-09-13T18:38:41.559Z,99061.00
2022-09-13T18:41:17.654Z,99058.56
2022-09-13T18:43:45.094Z,99055.00
2022-09-13T18:46:13.971Z,99059.53
2022-09-13T18:48:46.220Z,99060.16
2022-09-13T18:51:17.585Z,99072.75
2022-09-13T18:53:45.047Z,99062.66
2022-09-13T18:56:14.228Z,99059.91
2022-09-13T18:58:41.807Z,99065.75
2022-09-13T19:01:17.503Z,99069.66
2022-09-13T19:03:58.355Z,99070.97
2022-09-13T19:06:29.710Z,99068.84
2022-09-13T19:08:57.637Z,99070.38
2022-09-13T19:11:45.956Z,99080.00
2022-09-13T19:14:15.567Z,99080.84
2022-09-13T19:16:42.598Z,99093.75
2022-09-13T19:19:09.235Z,99093.75
2022-09-13T19:21:35.986Z,99089.28
2022-09-13T19:24:07.932Z,99094.97
2022-09-13T19:26:39.077Z,99096.50
2022-09-13T19:29:08.816Z,99094.97
2022-09-13T19:31:37.899Z,99089.38
2022-09-13T19:34:06.264Z,99093.28
2022-09-13T19:36:36.380Z,99097.09
2022-09-13T19:39:04.176Z,99096.84
2022-09-13T19:44:16.620Z,99102.41
2022-09-13T19:46:43.569Z,99098.97
2022-09-13T19:49:15.159Z,99091.59
2022-09-13T19:51:45.542Z,99091.94
2022-09-13T19:54:16.958Z,99093.22
2022-09-13T19:56:43.945Z,99095.59
2022-09-13T19:59:15.532Z,99092.44
2022-09-13T20:01:44.382Z,99094.75
2022-09-13T20:04:16.429Z,99087.72
2022-09-13T20:06:44.921Z,99087.09
2022-09-13T20:09:13.402Z,99087.84
2022-09-13T20:11:42.583Z,99083.19
2022-09-13T20:14:09.661Z,99091.66
2022-09-13T20:16:37.290Z,99088.69
2022-09-13T20:19:13.786Z,99082.72
2022-09-13T20:21:59.999Z,99075.06
2022-09-13T20:24:26.740Z,99082.03
2022-09-13T20:26:53.197Z,99091.47
2022-09-13T20:29:19.570Z,99086.69
2022-09-13T20:31:46.160Z,99093.75
2022-09-13T20:34:14.941Z,99087.69
2022-09-13T20:36:44.055Z,99077.63
2022-09-13T20:39:12.102Z,99094.47
2022-09-13T20:41:41.136Z,99079.41
2022-09-13T20:44:07.737Z,99085.38
2022-09-13T20:46:35.473Z,99087.22
2022-09-13T20:49:02.623Z,99086.00
2022-09-13T20:51:32.751Z,99083.56
2022-09-13T20:54:09.926Z,99078.84
2022-09-13T20:56:37.469Z,99082.13
2022-09-13T20:59:05.182Z,99067.53
2022-09-13T21:01:32.497Z,99077.59
2022-09-13T21:03:59.639Z,99068.81
2022-09-13T21:06:28.054Z,99065.22
2022-09-13T21:08:56.361Z,99059.88
2022-09-13T21:11:33.086Z,99057.41
2022-09-13T21:14:01.937Z,99068.28
2022-09-13T21:16:30.984Z,99071.59
2022-09-13T21:18:57.806Z,99064.59
2022-09-13T21:21:26.623Z,99059.47
2022-09-13T21:23:53.141Z,99068.72
2022-09-13T21:26:21.996Z,99066.63
2022-09-13T21:28:49.916Z,99059.72
2022-09-13T21:31:21.711Z,99063.94
2022-09-13T21:33:48.656Z,99065.19
2022-09-13T21:36:15.154Z,99064.75
2022-09-13T21:38:41.525Z,99069.59
2022-09-13T21:41:12.007Z,99070.25
2022-09-13T21:43:38.752Z,99060.44
2022-09-13T21:46:06.323Z,99065.03
2022-09-13T21:48:34.246Z,99068.81
2022-09-13T21:51:23.691Z,99066.53
2022-09-13T21:53:58.534Z,99072.34
2022-09-13T21:56:27.513Z,99074.47
2022-09-13T21:58:58.173Z,99056.69
2022-09-13T22:01:27.186Z,99069.44
2022-09-13T22:03:54.285Z,99077.19
2022-09-13T22:06:22.159Z,99077.19
2022-09-13T22:08:54.211Z,99073.88
2022-09-13T22:11:26.821Z,99078.06
2022-09-13T22:13:53.749Z,99083.72
2022-09-13T22:16:31.784Z,99090.19
2022-09-13T22:19:04.249Z,99080.34
2022-09-13T22:21:36.523Z,99088.31
2022-09-13T22:24:04.567Z,99082.50
2022-09-13T22:26:34.137Z,99087.25
2022-09-13T22:29:00.713Z,99087.66
2022-09-13T22:31:30.290Z,99076.78
2022-09-13T22:33:58.859Z,99078.06
2022-09-13T22:36:25.861Z,99081.81
2022-09-13T22:38:54.886Z,99086.47
2022-09-13T22:41:28.399Z,99078.75
2022-09-13T22:43:57.974Z,99080.84
2022-09-13T22:46:28.033Z,99082.94
2022-09-13T22:48:54.990Z,99078.16
2022-09-13T22:51:22.092Z,99077.31
2022-09-13T22:53:50.039Z,99082.94
2022-09-13T22:56:19.664Z,99078.56
2022-09-13T22:58:46.883Z,99081.50
2022-09-13T23:01:18.569Z,99081.50
2022-09-13T23:03:46.503Z,99087.13
2022-09-13T23:06:14.887Z,99084.22
2022-09-13T23:08:42.023Z,99083.63
2022-09-13T23:11:13.879Z,99078.78
2022-09-13T23:13:40.807Z,99081.13
2022-09-13T23:16:10.278Z,99081.13
2022-09-13T23:18:37.764Z,99072.19
2022-09-13T23:21:04.351Z,99070.72
2022-09-13T23:23:30.767Z,99074.50
2022-09-13T23:26:03.822Z,99077.41
2022-09-13T23:28:36.226Z,99077.00
2022-09-13T23:31:12.601Z,99069.50
2022-09-13T23:33:44.982Z,99071.56
2022-09-13T23:36:12.906Z,99068.88
2022-09-13T23:38:40.441Z,99059.47
2022-09-13T23:41:07.483Z,99059.47
2022-09-13T23:43:34.242Z,99065.31
2022-09-13T23:46:00.612Z,99050.28
2022-09-13T23:48:28.051Z,99054.25
2022-09-13T23:51:02.415Z,99042.97
2022-09-13T23:53:29.368Z,99050.28
2022-09-13T23:55:55.963Z,99056.31
2022-09-13T23:58:22.644Z,99049.84
